Time;durP1;ratioP1;P1;durP2;ratioP2;P2;SDS_P1;SDS_P2;PMS_P1;PMS_P2;Temp;Humidity;BMP_temperature;BMP_pressure;BME280_temperature;BME280_humidity;BME280_pressure;Samples;Min_cycle;Max_cycle;Signal;HPM_P1;HPM_P2
2022/01/05 00:05:19;;;;;;;2.47;0.70;;;4.20;99.90;;;;;;20627908;28;19996;-76
2022/01/05 00:15:20;;;;;;;;;;;4.10;99.90;;;;;;20608625;28;20282;-76
2022/01/05 00:25:21;;;;;;;5.28;1.17;;;4.10;99.90;;;;;;20746730;28;19910;-75
2022/01/05 00:35:22;;;;;;;1.92;0.60;;;4.10;99.90;;;;;;20730162;28;20147;-75
2022/01/05 00:45:23;;;;;;;1.73;1.10;;;4.00;99.90;;;;;;20746850;28;20037;-76
2022/01/05 00:55:23;;;;;;;;;;;3.90;99.90;;;;;;20746414;28;20049;-76
2022/01/05 01:05:24;;;;;;;1.03;0.80;;;4.10;99.90;;;;;;20745742;28;19910;-75
2022/01/05 01:15:25;;;;;;;;;;;4.10;99.90;;;;;;20745304;28;20284;-74
2022/01/05 01:25:26;;;;;;;1.10;0.40;;;4.10;99.90;;;;;;20744335;28;19916;-75
2022/01/05 01:35:27;;;;;;;;;;;4.10;99.90;;;;;;20743935;28;20288;-75
2022/01/05 01:45:27;;;;;;;2.57;1.03;;;4.20;99.90;;;;;;20743454;28;19936;-75
2022/01/05 01:55:29;;;;;;;0.73;0.50;;;4.30;99.90;;;;;;20742817;28;20320;-75
2022/01/05 02:05:29;;;;;;;;;;;4.30;99.90;;;;;;20737823;28;20143;-75
2022/01/05 02:15:30;;;;;;;1.75;1.50;;;4.30;99.90;;;;;;20758600;28;19913;-75
2022/01/05 02:25:31;;;;;;;;;;;4.30;99.90;;;;;;20758377;28;20037;-75
2022/01/05 02:35:32;;;;;;;1.92;0.70;;;4.30;99.90;;;;;;20757007;28;20281;-75
2022/01/05 02:45:32;;;;;;;;;;;4.30;99.90;;;;;;20756847;28;20034;-75
2022/01/05 02:55:33;;;;;;;1.17;0.50;;;4.40;99.90;;;;;;20755565;28;19920;-75
2022/01/05 03:05:34;;;;;;;;;;;4.30;99.90;;;;;;20755451;28;20042;-75
2022/01/05 03:15:35;;;;;;;0.30;0.30;;;4.30;99.90;;;;;;20735077;28;20016;-75
2022/01/05 03:25:36;;;;;;;0.20;0.20;;;4.10;99.90;;;;;;20753390;28;20416;-75
2022/01/05 03:35:40;;;;;;;0.30;0.30;;;3.90;99.90;;;;;;20752661;28;20103;-75
2022/01/05 03:45:42;;;;;;;0.30;0.30;;;3.80;99.90;;;;;;20751848;28;20465;-75
2022/01/05 03:55:45;;;;;;;0.57;0.50;;;3.80;99.90;;;;;;20734283;28;20586;-75
2022/01/05 04:05:45;;;;;;;1.90;0.70;;;3.70;99.90;;;;;;20750493;28;20022;-75
2022/01/05 04:15:46;;;;;;;0.43;0.30;;;3.80;99.90;;;;;;20731903;28;20042;-75
2022/01/05 04:25:47;;;;;;;;;;;3.80;99.90;;;;;;20748831;28;20032;-75
2022/01/05 04:35:48;;;;;;;4.43;2.10;;;3.80;99.90;;;;;;20747736;28;19917;-74
2022/01/05 04:45:49;;;;;;;0.30;0.30;;;3.80;99.90;;;;;;20771277;28;20157;-79
2022/01/05 04:55:50;;;;;;;0.30;0.30;;;3.90;99.90;;;;;;20770160;28;20083;-79
2022/01/05 05:05:51;;;;;;;0.22;0.22;;;3.90;99.90;;;;;;20735897;28;20034;-79
2022/01/05 05:15:51;;;;;;;2.25;0.32;;;3.90;99.90;;;;;;20752011;28;20067;-78
2022/01/05 05:25:52;;;;;;;0.50;0.50;;;3.90;99.90;;;;;;20749906;28;20034;-79
2022/01/05 05:35:53;;;;;;;0.43;0.43;;;4.00;99.90;;;;;;20763308;28;20675;-78
2022/01/05 05:45:54;;;;;;;3.53;1.20;;;4.10;99.90;;;;;;20746511;28;20038;-79
2022/01/05 05:55:55;;;;;;;1.38;0.90;;;4.30;99.90;;;;;;20721846;28;1281239;-77
2022/01/05 06:05:56;;;;;;;1.27;0.95;;;4.30;99.90;;;;;;20754801;28;20413;-79
2022/01/05 06:15:56;;;;;;;;;;;4.20;99.90;;;;;;20733281;28;20033;-76
2022/01/05 06:25:57;;;;;;;2.40;1.42;;;4.10;99.90;;;;;;20741620;28;19913;-75
2022/01/05 06:35:59;;;;;;;2.10;1.80;;;4.10;99.90;;;;;;20660022;28;20030;-75
2022/01/05 06:46:01;;;;;;;2.47;1.77;;;3.90;99.90;;;;;;20617854;28;20038;-75
2022/01/05 06:56:03;;;;;;;2.40;1.88;;;3.80;99.90;;;;;;20664257;28;20579;-75
2022/01/05 07:06:05;;;;;;;6.63;2.05;;;3.70;99.90;;;;;;20708489;23;20442;-80
2022/01/05 07:16:05;;;;;;;3.95;2.00;;;3.60;99.90;;;;;;20679451;28;20069;-82
2022/01/05 07:26:06;;;;;;;2.70;1.80;;;3.50;99.90;;;;;;20692718;28;20041;-81
2022/01/05 07:36:07;;;;;;;3.95;2.03;;;3.40;99.90;;;;;;20692450;28;20026;-82
2022/01/05 07:46:08;;;;;;;2.75;2.15;;;3.30;99.90;;;;;;20694449;28;20554;-81
2022/01/05 07:56:09;;;;;;;5.03;2.05;;;3.20;99.90;;;;;;20677352;28;20041;-82
2022/01/05 08:06:10;;;;;;;7.72;2.20;;;3.00;99.90;;;;;;20675103;28;20049;-80
2022/01/05 08:16:11;;;;;;;5.85;2.25;;;2.80;99.90;;;;;;20674943;28;20038;-82
2022/01/05 08:26:12;;;;;;;1.83;1.40;;;2.70;99.90;;;;;;20658663;28;20038;-82
2022/01/05 08:36:13;;;;;;;3.75;1.60;;;2.60;99.90;;;;;;20683506;28;20068;-80
2022/01/05 08:46:14;;;;;;;4.38;2.42;;;2.20;99.90;;;;;;20626621;28;20044;-79
2022/01/05 08:56:15;;;;;;;1.55;1.15;;;2.10;99.90;;;;;;20645055;28;20039;-80
2022/01/05 09:06:16;;;;;;;2.40;1.38;;;2.10;99.90;;;;;;20645065;28;20114;-79
2022/01/05 09:16:16;;;;;;;2.67;1.27;;;2.00;99.90;;;;;;20683423;28;20044;-79
2022/01/05 09:26:17;;;;;;;3.03;1.65;;;2.10;99.90;;;;;;20658086;28;20034;-81
2022/01/05 09:36:29;;;;;;;5.00;2.28;;;2.20;99.90;;;;;;20640539;28;20033;-80
2022/01/05 09:46:42;;;;;;;10.65;2.50;;;2.40;99.90;;;;;;20603819;28;20042;-81
2022/01/05 09:56:44;;;;;;;7.45;2.58;;;2.40;99.90;;;;;;20609438;28;20034;-81
2022/01/05 10:06:46;;;;;;;6.45;2.88;;;2.40;99.90;;;;;;20643980;28;20097;-80
2022/01/05 10:17:22;;;;;;;7.80;2.70;;;2.20;99.90;;;;;;20616635;28;20051;-84
2022/01/05 10:27:25;;;;;;;8.23;2.97;;;2.30;99.90;;;;;;20634905;28;20047;-81
2022/01/05 10:37:26;;;;;;;3.72;2.25;;;2.40;99.90;;;;;;20649080;28;20497;-83
2022/01/05 10:47:27;;;;;;;10.18;2.08;;;2.50;99.90;;;;;;20646404;28;20038;-82
2022/01/05 10:57:28;;;;;;;3.40;1.77;;;3.00;99.90;;;;;;20609846;28;20244;-82
2022/01/05 11:07:31;;;;;;;7.68;1.80;;;3.90;99.90;;;;;;20608968;28;20282;-83
2022/01/05 11:17:32;;;;;;;4.70;1.73;;;3.50;99.90;;;;;;20629075;28;20101;-82
2022/01/05 11:27:34;;;;;;;5.00;1.48;;;3.90;99.90;;;;;;20612964;28;20030;-83
2022/01/05 11:37:35;;;;;;;8.82;1.48;;;3.70;99.90;;;;;;20623219;28;20684;-83
2022/01/05 11:47:38;;;;;;;8.60;2.00;;;3.80;99.90;;;;;;20604519;28;20045;-82
2022/01/05 11:58:12;;;;;;;4.00;1.48;;;4.30;99.90;;;;;;20604867;28;20070;-83
2022/01/05 12:08:39;;;;;;;4.25;1.52;;;4.10;99.90;;;;;;20647028;28;20129;-85
2022/01/05 12:18:40;;;;;;;4.28;1.75;;;3.50;99.90;;;;;;20636313;28;20062;-82
2022/01/05 12:28:51;;;;;;;2.17;1.33;;;3.10;99.90;;;;;;20666714;28;20041;-84
2022/01/05 12:38:55;;;;;;;6.07;1.80;;;3.10;99.90;;;;;;20654166;28;20150;-83
2022/01/05 12:48:58;;;;;;;5.15;1.40;;;3.00;99.90;;;;;;20636754;28;20498;-82
2022/01/05 12:59:01;;;;;;;6.72;1.58;;;3.10;99.90;;;;;;20634924;28;20069;-84
2022/01/05 13:09:09;;;;;;;9.30;1.73;;;3.10;99.90;;;;;;20649565;28;20097;-82
2022/01/05 13:19:27;;;;;;;7.28;1.88;;;3.00;99.90;;;;;;20651587;28;20065;-83
2022/01/05 13:29:28;;;;;;;7.88;1.60;;;2.90;99.90;;;;;;20638197;28;20407;-85
2022/01/05 13:39:45;;;;;;;8.50;1.65;;;3.00;99.90;;;;;;20637684;28;20038;-84
2022/01/05 13:50:05;;;;;;;9.45;1.65;;;3.00;99.90;;;;;;20636708;28;20041;-84
2022/01/05 14:00:11;;;;;;;5.70;1.83;;;3.70;99.90;;;;;;20635983;28;20113;-85
2022/01/05 14:10:12;;;;;;;14.57;1.63;;;3.90;99.90;;;;;;20636842;28;20038;-84
2022/01/05 14:20:20;;;;;;;5.03;1.08;;;4.00;99.90;;;;;;20633271;28;20038;-85
2022/01/05 14:30:31;;;;;;;11.52;2.35;;;3.20;99.90;;;;;;20648598;28;20050;-85
2022/01/05 14:40:32;;;;;;;14.55;1.52;;;3.00;99.90;;;;;;20648607;28;20117;-85
2022/01/05 14:50:35;;;;;;;11.43;1.40;;;3.00;99.90;;;;;;20647420;28;20121;-84
2022/01/05 15:00:36;;;;;;;9.05;1.90;;;3.50;99.90;;;;;;20629403;28;20034;-81
2022/01/05 15:10:37;;;;;;;7.53;1.58;;;3.60;99.90;;;;;;20672166;28;20049;-83
2022/01/05 15:20:41;;;;;;;14.10;2.05;;;3.70;99.90;;;;;;20661292;28;20499;-83
2022/01/05 15:30:43;;;;;;;10.27;1.77;;;3.50;99.90;;;;;;20647111;28;20396;-85
2022/01/05 15:40:44;;;;;;;3.78;1.25;;;3.00;99.90;;;;;;20644243;28;20034;-83
2022/01/05 15:50:45;;;;;;;7.82;1.70;;;2.70;99.90;;;;;;20660182;28;20495;-82
2022/01/05 16:11:06;;;;;;;7.47;1.83;;;2.30;99.90;;;;;;20654840;28;20031;-83
2022/01/05 16:21:09;;;;;;;6.70;1.48;;;2.20;99.90;;;;;;20637970;28;20045;-85
2022/01/05 16:31:10;;;;;;;5.35;1.83;;;2.00;99.90;;;;;;20655907;28;20038;-82
2022/01/05 16:41:12;;;;;;;7.78;1.67;;;1.90;99.90;;;;;;20655090;28;20026;-85
2022/01/05 16:51:14;;;;;;;18.55;6.53;;;1.70;99.90;;;;;;20639272;28;20034;-84
2022/01/05 17:01:15;;;;;;;8.07;2.17;;;1.60;99.90;;;;;;20638386;28;20039;-81
2022/01/05 17:11:16;;;;;;;8.70;1.80;;;1.40;99.90;;;;;;20671105;28;20521;-82
2022/01/05 17:21:17;;;;;;;5.47;2.20;;;1.10;99.90;;;;;;20636739;28;20121;-82
2022/01/05 17:31:20;;;;;;;13.20;2.72;;;0.90;99.90;;;;;;20653018;28;20031;-83
2022/01/05 17:41:22;;;;;;;19.25;7.15;;;0.40;99.90;;;;;;20653785;28;20129;-84
2022/01/05 17:51:25;;;;;;;12.60;7.18;;;0.50;99.90;;;;;;20650722;28;20038;-82
2022/01/05 18:01:26;;;;;;;43.25;16.33;;;0.20;99.90;;;;;;20634600;28;20558;-83
2022/01/05 18:11:27;;;;;;;28.20;11.93;;;0.20;99.90;;;;;;20634700;28;20484;-81
2022/01/05 18:21:28;;;;;;;19.30;7.15;;;0.50;99.90;;;;;;20635929;28;20043;-82
2022/01/05 18:31:29;;;;;;;21.25;7.65;;;0.70;99.90;;;;;;20653000;28;20038;-81
2022/01/05 18:41:31;;;;;;;17.67;5.95;;;0.70;99.90;;;;;;20744909;28;20026;-82
2022/01/05 18:51:32;;;;;;;22.65;7.00;;;0.70;99.90;;;;;;20670675;28;20038;-83
2022/01/05 19:01:33;;;;;;;23.38;6.10;;;0.70;99.90;;;;;;20646819;28;20042;-82
2022/01/05 19:11:34;;;;;;;30.92;11.48;;;0.70;99.90;;;;;;20761905;28;20030;-81
2022/01/05 19:21:35;;;;;;;18.73;9.88;;;1.00;99.90;;;;;;20763042;28;20368;-81
2022/01/05 19:31:37;;;;;;;22.95;9.10;;;1.00;99.90;;;;;;20750770;28;20033;-84
2022/01/05 19:41:37;;;;;;;19.92;6.88;;;1.10;99.90;;;;;;20775224;28;20037;-82
2022/01/05 19:51:53;;;;;;;13.25;5.75;;;1.10;99.90;;;;;;20746430;28;20029;-80
2022/01/05 20:01:55;;;;;;;17.27;5.25;;;1.00;99.90;;;;;;20735834;28;20034;-84
2022/01/05 20:11:56;;;;;;;15.82;6.65;;;1.10;99.90;;;;;;20747499;28;20406;-82
2022/01/05 20:21:57;;;;;;;18.17;6.60;;;1.20;99.90;;;;;;20739928;28;20064;-81
2022/01/05 20:31:58;;;;;;;13.75;6.18;;;1.10;99.90;;;;;;20720148;28;20033;-82
2022/01/05 20:41:59;;;;;;;12.30;5.40;;;1.20;99.90;;;;;;20733602;28;20072;-81
2022/01/05 20:52:00;;;;;;;11.93;4.55;;;1.20;99.90;;;;;;20696690;28;20104;-82
2022/01/05 21:02:01;;;;;;;21.15;6.25;;;1.30;99.90;;;;;;20636390;28;20042;-82
2022/01/05 21:12:02;;;;;;;11.93;4.07;;;1.20;99.90;;;;;;20650052;28;20034;-82
2022/01/05 21:22:04;;;;;;;20.55;5.20;;;1.20;99.90;;;;;;20645879;28;20101;-82
2022/01/05 21:32:05;;;;;;;16.98;6.65;;;1.30;99.90;;;;;;20661632;28;20038;-83
2022/01/05 21:42:06;;;;;;;15.52;4.82;;;1.20;99.90;;;;;;20670244;28;20415;-82
2022/01/05 21:52:07;;;;;;;6.65;3.30;;;1.20;99.90;;;;;;20653209;28;20041;-84
2022/01/05 22:02:08;;;;;;;9.85;3.92;;;1.20;99.90;;;;;;20659966;28;20051;-81
2022/01/05 22:12:10;;;;;;;14.20;4.13;;;1.30;99.90;;;;;;20635406;28;20027;-81
2022/01/05 22:22:11;;;;;;;13.65;3.88;;;1.30;99.90;;;;;;20692825;28;20077;-80
2022/01/05 22:32:12;;;;;;;8.50;3.10;;;1.30;99.90;;;;;;20703766;28;20033;-81
2022/01/05 22:42:13;;;;;;;8.13;3.33;;;1.40;99.90;;;;;;20727681;28;20038;-81
2022/01/05 22:52:13;;;;;;;4.97;2.60;;;1.40;99.90;;;;;;20646475;28;20050;-81
2022/01/05 23:02:15;;;;;;;10.60;3.13;;;1.40;99.90;;;;;;20661072;28;20034;-81
2022/01/05 23:12:18;;;;;;;12.80;2.78;;;1.40;99.90;;;;;;20660112;28;20041;-80
2022/01/05 23:22:19;;;;;;;12.10;4.10;;;1.40;99.90;;;;;;20665099;28;20100;-79
2022/01/05 23:32:20;;;;;;;11.20;3.65;;;1.20;99.90;;;;;;20676783;28;20117;-82
2022/01/05 23:42:26;;;;;;;10.02;3.78;;;1.20;99.90;;;;;;20622440;28;20031;-82
2022/01/05 23:52:31;;;;;;;11.90;3.85;;;1.30;99.90;;;;;;20611032;28;20035;-81
